sensor_id;sensor_type;location;lat;lon;timestamp;temperature;humidity
15713;DHT22;7957;51.608;6.916;2022-09-27T00:00:11;11.80;1.00
15713;DHT22;7957;51.608;6.916;2022-09-27T00:02:38;11.80;1.00
15713;DHT22;7957;51.608;6.916;2022-09-27T00:05:05;11.80;1.00
15713;DHT22;7957;51.608;6.916;2022-09-27T00:07:33;11.80;1.00
15713;DHT22;7957;51.608;6.916;2022-09-27T00:10:00;11.80;1.00
15713;DHT22;7957;51.608;6.916;2022-09-27T00:12:28;11.80;1.00
15713;DHT22;7957;51.608;6.916;2022-09-27T00:14:56;11.80;1.00
15713;DHT22;7957;51.608;6.916;2022-09-27T00:17:25;11.80;1.00
15713;DHT22;7957;51.608;6.916;2022-09-27T00:19:52;11.80;1.00
15713;DHT22;7957;51.608;6.916;2022-09-27T00:22:20;11.70;1.00
15713;DHT22;7957;51.608;6.916;2022-09-27T00:24:47;11.70;1.00
15713;DHT22;7957;51.608;6.916;2022-09-27T00:27:14;11.80;1.00
15713;DHT22;7957;51.608;6.916;2022-09-27T00:29:42;11.70;1.00
15713;DHT22;7957;51.608;6.916;2022-09-27T00:32:10;11.70;1.00
15713;DHT22;7957;51.608;6.916;2022-09-27T00:34:38;11.70;1.00
15713;DHT22;7957;51.608;6.916;2022-09-27T00:37:05;11.70;1.00
15713;DHT22;7957;51.608;6.916;2022-09-27T00:39:31;11.70;1.00
15713;DHT22;7957;51.608;6.916;2022-09-27T00:41:58;11.70;1.00
15713;DHT22;7957;51.608;6.916;2022-09-27T00:44:52;11.70;1.00
15713;DHT22;7957;51.608;6.916;2022-09-27T00:47:28;11.70;1.00
15713;DHT22;7957;51.608;6.916;2022-09-27T00:49:58;11.70;1.00
15713;DHT22;7957;51.608;6.916;2022-09-27T00:52:30;11.70;1.00
15713;DHT22;7957;51.608;6.916;2022-09-27T00:55:05;11.70;1.00
15713;DHT22;7957;51.608;6.916;2022-09-27T00:57:33;11.70;1.00
15713;DHT22;7957;51.608;6.916;2022-09-27T01:00:04;11.70;1.00
15713;DHT22;7957;51.608;6.916;2022-09-27T01:02:33;11.70;1.00
15713;DHT22;7957;51.608;6.916;2022-09-27T01:05:02;11.60;1.00
15713;DHT22;7957;51.608;6.916;2022-09-27T01:07:29;11.60;1.00
15713;DHT22;7957;51.608;6.916;2022-09-27T01:09:56;11.60;1.00
15713;DHT22;7957;51.608;6.916;2022-09-27T01:12:32;11.70;1.00
15713;DHT22;7957;51.608;6.916;2022-09-27T01:15:10;11.60;1.00
15713;DHT22;7957;51.608;6.916;2022-09-27T01:17:48;11.60;1.00
15713;DHT22;7957;51.608;6.916;2022-09-27T01:20:48;11.60;1.00
15713;DHT22;7957;51.608;6.916;2022-09-27T01:23:32;11.60;1.00
15713;DHT22;7957;51.608;6.916;2022-09-27T01:26:12;11.60;1.00
15713;DHT22;7957;51.608;6.916;2022-09-27T01:28:53;11.60;1.00
15713;DHT22;7957;51.608;6.916;2022-09-27T01:31:26;11.60;1.00
15713;DHT22;7957;51.608;6.916;2022-09-27T01:34:02;11.60;1.00
15713;DHT22;7957;51.608;6.916;2022-09-27T01:36:40;11.60;1.00
15713;DHT22;7957;51.608;6.916;2022-09-27T01:39:19;11.60;1.00
15713;DHT22;7957;51.608;6.916;2022-09-27T01:41:56;11.60;1.00
15713;DHT22;7957;51.608;6.916;2022-09-27T01:44:30;11.60;1.00
15713;DHT22;7957;51.608;6.916;2022-09-27T01:47:04;11.60;1.00
15713;DHT22;7957;51.608;6.916;2022-09-27T01:49:38;11.60;1.00
15713;DHT22;7957;51.608;6.916;2022-09-27T01:52:07;11.60;1.00
15713;DHT22;7957;51.608;6.916;2022-09-27T01:54:39;11.50;1.00
15713;DHT22;7957;51.608;6.916;2022-09-27T01:57:08;11.50;1.00
15713;DHT22;7957;51.608;6.916;2022-09-27T01:59:40;11.50;1.00
15713;DHT22;7957;51.608;6.916;2022-09-27T02:02:10;11.60;1.00
15713;DHT22;7957;51.608;6.916;2022-09-27T02:04:39;11.50;1.00
15713;DHT22;7957;51.608;6.916;2022-09-27T02:07:11;11.50;1.00
15713;DHT22;7957;51.608;6.916;2022-09-27T02:09:43;11.50;1.00
15713;DHT22;7957;51.608;6.916;2022-09-27T02:12:14;11.50;1.00
15713;DHT22;7957;51.608;6.916;2022-09-27T02:14:45;11.50;1.00
15713;DHT22;7957;51.608;6.916;2022-09-27T02:17:22;11.50;1.00
15713;DHT22;7957;51.608;6.916;2022-09-27T02:19:55;11.50;1.00
15713;DHT22;7957;51.608;6.916;2022-09-27T02:22:31;11.50;1.00
15713;DHT22;7957;51.608;6.916;2022-09-27T02:25:06;11.50;1.00
15713;DHT22;7957;51.608;6.916;2022-09-27T02:27:39;11.40;1.00
15713;DHT22;7957;51.608;6.916;2022-09-27T02:30:11;11.50;1.00
15713;DHT22;7957;51.608;6.916;2022-09-27T02:32:40;11.40;1.00
15713;DHT22;7957;51.608;6.916;2022-09-27T02:35:12;11.40;1.00
15713;DHT22;7957;51.608;6.916;2022-09-27T02:37:41;11.40;1.00
15713;DHT22;7957;51.608;6.916;2022-09-27T02:40:08;11.40;1.00
15713;DHT22;7957;51.608;6.916;2022-09-27T02:42:36;11.40;1.00
15713;DHT22;7957;51.608;6.916;2022-09-27T02:45:04;11.40;1.00
15713;DHT22;7957;51.608;6.916;2022-09-27T02:47:52;11.40;1.00
15713;DHT22;7957;51.608;6.916;2022-09-27T02:50:52;11.40;1.00
15713;DHT22;7957;51.608;6.916;2022-09-27T02:53:34;11.40;1.00
15713;DHT22;7957;51.608;6.916;2022-09-27T02:56:10;11.40;1.00
15713;DHT22;7957;51.608;6.916;2022-09-27T02:58:48;11.40;1.00
15713;DHT22;7957;51.608;6.916;2022-09-27T03:01:22;11.40;1.00
15713;DHT22;7957;51.608;6.916;2022-09-27T03:03:58;11.40;1.00
15713;DHT22;7957;51.608;6.916;2022-09-27T03:06:28;11.40;1.00
15713;DHT22;7957;51.608;6.916;2022-09-27T03:08:56;11.40;1.00
15713;DHT22;7957;51.608;6.916;2022-09-27T03:11:23;11.30;1.00
15713;DHT22;7957;51.608;6.916;2022-09-27T03:13:50;11.30;1.00
15713;DHT22;7957;51.608;6.916;2022-09-27T03:16:17;11.30;1.00
15713;DHT22;7957;51.608;6.916;2022-09-27T03:18:44;11.30;1.00
15713;DHT22;7957;51.608;6.916;2022-09-27T03:21:13;11.30;1.00
15713;DHT22;7957;51.608;6.916;2022-09-27T03:23:40;11.30;1.00
15713;DHT22;7957;51.608;6.916;2022-09-27T03:26:07;11.20;1.00
15713;DHT22;7957;51.608;6.916;2022-09-27T03:28:34;11.20;1.00
15713;DHT22;7957;51.608;6.916;2022-09-27T03:31:01;11.20;1.00
15713;DHT22;7957;51.608;6.916;2022-09-27T03:33:28;11.20;1.00
15713;DHT22;7957;51.608;6.916;2022-09-27T03:35:55;11.20;1.00
15713;DHT22;7957;51.608;6.916;2022-09-27T03:38:23;11.20;1.00
15713;DHT22;7957;51.608;6.916;2022-09-27T03:40:50;11.20;1.00
15713;DHT22;7957;51.608;6.916;2022-09-27T03:43:17;11.20;1.00
15713;DHT22;7957;51.608;6.916;2022-09-27T03:45:44;11.20;1.00
15713;DHT22;7957;51.608;6.916;2022-09-27T03:48:12;11.30;1.00
15713;DHT22;7957;51.608;6.916;2022-09-27T03:50:38;11.30;1.00
15713;DHT22;7957;51.608;6.916;2022-09-27T03:53:05;11.20;1.00
15713;DHT22;7957;51.608;6.916;2022-09-27T03:55:34;11.30;1.00
15713;DHT22;7957;51.608;6.916;2022-09-27T03:58:01;11.30;1.00
15713;DHT22;7957;51.608;6.916;2022-09-27T04:00:28;11.20;1.00
15713;DHT22;7957;51.608;6.916;2022-09-27T04:02:57;11.30;1.00
15713;DHT22;7957;51.608;6.916;2022-09-27T04:05:24;11.20;1.00
15713;DHT22;7957;51.608;6.916;2022-09-27T04:07:51;11.20;1.00
15713;DHT22;7957;51.608;6.916;2022-09-27T04:10:18;11.20;1.00
15713;DHT22;7957;51.608;6.916;2022-09-27T04:12:47;11.20;1.00
15713;DHT22;7957;51.608;6.916;2022-09-27T04:15:14;11.20;1.00
15713;DHT22;7957;51.608;6.916;2022-09-27T04:17:41;11.20;1.00
15713;DHT22;7957;51.608;6.916;2022-09-27T04:20:08;11.10;1.00
15713;DHT22;7957;51.608;6.916;2022-09-27T04:22:38;11.10;1.00
15713;DHT22;7957;51.608;6.916;2022-09-27T04:25:07;11.10;1.00
15713;DHT22;7957;51.608;6.916;2022-09-27T04:27:34;11.10;1.00
15713;DHT22;7957;51.608;6.916;2022-09-27T04:30:04;11.10;1.00
15713;DHT22;7957;51.608;6.916;2022-09-27T04:32:31;11.00;1.00
15713;DHT22;7957;51.608;6.916;2022-09-27T04:34:58;11.00;1.00
15713;DHT22;7957;51.608;6.916;2022-09-27T04:37:42;11.00;1.00
15713;DHT22;7957;51.608;6.916;2022-09-27T04:40:10;11.00;1.00
15713;DHT22;7957;51.608;6.916;2022-09-27T04:42:37;11.00;1.00
15713;DHT22;7957;51.608;6.916;2022-09-27T04:45:07;11.00;1.00
15713;DHT22;7957;51.608;6.916;2022-09-27T04:47:34;11.00;1.00
15713;DHT22;7957;51.608;6.916;2022-09-27T04:50:01;11.00;1.00
15713;DHT22;7957;51.608;6.916;2022-09-27T04:52:28;11.00;1.00
15713;DHT22;7957;51.608;6.916;2022-09-27T04:54:56;11.00;1.00
15713;DHT22;7957;51.608;6.916;2022-09-27T04:57:23;11.00;1.00
15713;DHT22;7957;51.608;6.916;2022-09-27T04:59:50;11.00;1.00
15713;DHT22;7957;51.608;6.916;2022-09-27T05:02:19;11.00;1.00
15713;DHT22;7957;51.608;6.916;2022-09-27T05:04:46;11.00;1.00
15713;DHT22;7957;51.608;6.916;2022-09-27T05:07:13;10.90;1.00
15713;DHT22;7957;51.608;6.916;2022-09-27T05:09:40;10.90;1.00
15713;DHT22;7957;51.608;6.916;2022-09-27T05:12:07;11.00;1.00
15713;DHT22;7957;51.608;6.916;2022-09-27T05:14:34;11.00;1.00
15713;DHT22;7957;51.608;6.916;2022-09-27T05:17:01;10.90;1.00
15713;DHT22;7957;51.608;6.916;2022-09-27T05:19:30;11.00;1.00
15713;DHT22;7957;51.608;6.916;2022-09-27T05:21:57;10.90;1.00
15713;DHT22;7957;51.608;6.916;2022-09-27T05:24:24;10.90;1.00
15713;DHT22;7957;51.608;6.916;2022-09-27T05:26:52;10.90;1.00
15713;DHT22;7957;51.608;6.916;2022-09-27T05:29:19;10.90;1.00
15713;DHT22;7957;51.608;6.916;2022-09-27T05:31:46;10.90;1.00
15713;DHT22;7957;51.608;6.916;2022-09-27T05:34:14;10.90;1.00
15713;DHT22;7957;51.608;6.916;2022-09-27T05:36:46;10.90;1.00
15713;DHT22;7957;51.608;6.916;2022-09-27T05:39:12;10.90;1.00
15713;DHT22;7957;51.608;6.916;2022-09-27T05:41:41;10.90;1.00
15713;DHT22;7957;51.608;6.916;2022-09-27T05:44:08;10.90;1.00
15713;DHT22;7957;51.608;6.916;2022-09-27T05:46:34;10.90;1.00
15713;DHT22;7957;51.608;6.916;2022-09-27T05:49:03;10.90;1.00
15713;DHT22;7957;51.608;6.916;2022-09-27T05:51:31;10.90;1.00
15713;DHT22;7957;51.608;6.916;2022-09-27T05:53:59;10.90;1.00
15713;DHT22;7957;51.608;6.916;2022-09-27T05:56:27;10.90;1.00
15713;DHT22;7957;51.608;6.916;2022-09-27T05:58:54;10.80;1.00
15713;DHT22;7957;51.608;6.916;2022-09-27T06:01:21;10.90;1.00
15713;DHT22;7957;51.608;6.916;2022-09-27T06:03:48;10.90;1.00
15713;DHT22;7957;51.608;6.916;2022-09-27T06:06:15;10.80;1.00
15713;DHT22;7957;51.608;6.916;2022-09-27T06:08:42;10.90;1.00
15713;DHT22;7957;51.608;6.916;2022-09-27T06:11:11;10.80;1.00
15713;DHT22;7957;51.608;6.916;2022-09-27T06:13:39;10.90;1.00
15713;DHT22;7957;51.608;6.916;2022-09-27T06:16:08;10.90;1.00
15713;DHT22;7957;51.608;6.916;2022-09-27T06:18:36;10.90;1.00
15713;DHT22;7957;51.608;6.916;2022-09-27T06:21:03;10.90;1.00
15713;DHT22;7957;51.608;6.916;2022-09-27T06:23:31;10.90;1.00
15713;DHT22;7957;51.608;6.916;2022-09-27T06:26:00;10.90;1.00
15713;DHT22;7957;51.608;6.916;2022-09-27T06:28:29;10.90;1.00
15713;DHT22;7957;51.608;6.916;2022-09-27T06:30:57;10.90;1.00
15713;DHT22;7957;51.608;6.916;2022-09-27T06:33:25;10.90;1.00
15713;DHT22;7957;51.608;6.916;2022-09-27T06:35:53;10.90;1.00
15713;DHT22;7957;51.608;6.916;2022-09-27T06:38:21;10.90;1.00
15713;DHT22;7957;51.608;6.916;2022-09-27T06:40:49;10.90;1.00
15713;DHT22;7957;51.608;6.916;2022-09-27T06:43:17;10.90;1.00
15713;DHT22;7957;51.608;6.916;2022-09-27T06:45:46;10.90;1.00
15713;DHT22;7957;51.608;6.916;2022-09-27T06:48:14;10.90;1.00
15713;DHT22;7957;51.608;6.916;2022-09-27T06:50:42;10.90;99.90
15713;DHT22;7957;51.608;6.916;2022-09-27T06:53:11;10.90;99.90
15713;DHT22;7957;51.608;6.916;2022-09-27T06:55:38;10.90;99.90
15713;DHT22;7957;51.608;6.916;2022-09-27T06:58:06;10.90;99.90
15713;DHT22;7957;51.608;6.916;2022-09-27T07:00:52;10.80;99.90
15713;DHT22;7957;51.608;6.916;2022-09-27T07:03:19;10.90;99.90
15713;DHT22;7957;51.608;6.916;2022-09-27T07:05:54;10.90;99.90
15713;DHT22;7957;51.608;6.916;2022-09-27T07:08:22;10.80;99.90
15713;DHT22;7957;51.608;6.916;2022-09-27T07:10:53;10.80;99.90
15713;DHT22;7957;51.608;6.916;2022-09-27T07:13:20;10.80;99.90
15713;DHT22;7957;51.608;6.916;2022-09-27T07:15:47;10.80;99.90
15713;DHT22;7957;51.608;6.916;2022-09-27T07:18:16;10.80;99.90
15713;DHT22;7957;51.608;6.916;2022-09-27T07:20:43;10.90;99.90
15713;DHT22;7957;51.608;6.916;2022-09-27T07:23:10;10.90;99.90
15713;DHT22;7957;51.608;6.916;2022-09-27T07:25:38;10.90;99.90
15713;DHT22;7957;51.608;6.916;2022-09-27T07:28:06;10.90;99.90
15713;DHT22;7957;51.608;6.916;2022-09-27T07:30:34;10.90;99.90
15713;DHT22;7957;51.608;6.916;2022-09-27T07:33:03;10.90;99.90
15713;DHT22;7957;51.608;6.916;2022-09-27T07:35:32;10.90;99.90
15713;DHT22;7957;51.608;6.916;2022-09-27T07:37:59;11.00;99.90
15713;DHT22;7957;51.608;6.916;2022-09-27T07:40:28;10.90;99.90
15713;DHT22;7957;51.608;6.916;2022-09-27T07:42:55;11.00;99.90
15713;DHT22;7957;51.608;6.916;2022-09-27T07:45:22;10.90;99.90
15713;DHT22;7957;51.608;6.916;2022-09-27T07:47:50;11.00;99.90
15713;DHT22;7957;51.608;6.916;2022-09-27T07:50:18;11.00;99.90
15713;DHT22;7957;51.608;6.916;2022-09-27T07:52:48;11.00;99.90
15713;DHT22;7957;51.608;6.916;2022-09-27T07:55:16;11.00;99.90
15713;DHT22;7957;51.608;6.916;2022-09-27T07:57:45;11.00;99.90
15713;DHT22;7957;51.608;6.916;2022-09-27T08:00:13;11.00;94.40
15713;DHT22;7957;51.608;6.916;2022-09-27T08:02:40;11.00;73.30
15713;DHT22;7957;51.608;6.916;2022-09-27T08:05:08;11.00;59.10
15713;DHT22;7957;51.608;6.916;2022-09-27T08:07:35;11.00;28.90
15713;DHT22;7957;51.608;6.916;2022-09-27T08:10:06;11.00;11.60
15713;DHT22;7957;51.608;6.916;2022-09-27T08:12:33;11.10;1.00
15713;DHT22;7957;51.608;6.916;2022-09-27T08:15:00;11.10;1.00
15713;DHT22;7957;51.608;6.916;2022-09-27T08:17:29;11.10;1.00
15713;DHT22;7957;51.608;6.916;2022-09-27T08:19:56;11.10;1.00
15713;DHT22;7957;51.608;6.916;2022-09-27T08:22:24;11.10;1.00
15713;DHT22;7957;51.608;6.916;2022-09-27T08:24:51;11.10;1.00
15713;DHT22;7957;51.608;6.916;2022-09-27T08:27:20;11.10;1.00
15713;DHT22;7957;51.608;6.916;2022-09-27T08:29:46;11.20;1.00
15713;DHT22;7957;51.608;6.916;2022-09-27T08:32:15;11.20;1.00
15713;DHT22;7957;51.608;6.916;2022-09-27T08:34:43;11.20;1.00
15713;DHT22;7957;51.608;6.916;2022-09-27T08:37:10;11.30;1.00
15713;DHT22;7957;51.608;6.916;2022-09-27T08:39:37;11.30;1.00
15713;DHT22;7957;51.608;6.916;2022-09-27T08:42:12;11.30;1.00
15713;DHT22;7957;51.608;6.916;2022-09-27T08:44:52;11.40;1.00
15713;DHT22;7957;51.608;6.916;2022-09-27T08:47:26;11.40;1.00
15713;DHT22;7957;51.608;6.916;2022-09-27T08:49:56;11.50;99.90
15713;DHT22;7957;51.608;6.916;2022-09-27T08:52:29;11.50;99.90
15713;DHT22;7957;51.608;6.916;2022-09-27T08:55:02;11.50;99.90
15713;DHT22;7957;51.608;6.916;2022-09-27T08:57:29;11.50;99.90
15713;DHT22;7957;51.608;6.916;2022-09-27T09:00:02;11.60;99.90
15713;DHT22;7957;51.608;6.916;2022-09-27T09:02:30;11.50;99.90
15713;DHT22;7957;51.608;6.916;2022-09-27T09:05:02;11.60;84.60
15713;DHT22;7957;51.608;6.916;2022-09-27T09:07:41;11.60;12.10
15713;DHT22;7957;51.608;6.916;2022-09-27T09:10:25;11.60;1.00
15713;DHT22;7957;51.608;6.916;2022-09-27T09:13:22;11.60;1.00
15713;DHT22;7957;51.608;6.916;2022-09-27T09:16:00;11.60;1.00
15713;DHT22;7957;51.608;6.916;2022-09-27T09:18:41;11.60;1.00
15713;DHT22;7957;51.608;6.916;2022-09-27T09:21:20;11.60;1.00
15713;DHT22;7957;51.608;6.916;2022-09-27T09:24:12;11.70;1.00
15713;DHT22;7957;51.608;6.916;2022-09-27T09:26:48;11.70;1.00
15713;DHT22;7957;51.608;6.916;2022-09-27T09:29:35;11.70;1.00
15713;DHT22;7957;51.608;6.916;2022-09-27T09:32:18;11.70;1.00
15713;DHT22;7957;51.608;6.916;2022-09-27T09:34:52;11.70;1.00
15713;DHT22;7957;51.608;6.916;2022-09-27T09:37:22;11.70;1.00
15713;DHT22;7957;51.608;6.916;2022-09-27T09:39:54;11.70;1.00
15713;DHT22;7957;51.608;6.916;2022-09-27T09:42:25;11.70;1.00
15713;DHT22;7957;51.608;6.916;2022-09-27T09:45:00;11.70;1.00
15713;DHT22;7957;51.608;6.916;2022-09-27T09:47:34;11.80;1.00
15713;DHT22;7957;51.608;6.916;2022-09-27T09:50:05;11.80;1.00
15713;DHT22;7957;51.608;6.916;2022-09-27T09:52:42;11.80;1.00
15713;DHT22;7957;51.608;6.916;2022-09-27T09:55:17;11.80;1.00
15713;DHT22;7957;51.608;6.916;2022-09-27T09:57:55;11.80;1.00
15713;DHT22;7957;51.608;6.916;2022-09-27T10:00:24;11.90;1.00
15713;DHT22;7957;51.608;6.916;2022-09-27T10:02:53;11.90;1.00
15713;DHT22;7957;51.608;6.916;2022-09-27T10:05:23;12.00;1.00
15713;DHT22;7957;51.608;6.916;2022-09-27T10:07:52;12.00;1.00
15713;DHT22;7957;51.608;6.916;2022-09-27T10:10:21;12.00;1.00
15713;DHT22;7957;51.608;6.916;2022-09-27T10:12:48;12.10;1.00
15713;DHT22;7957;51.608;6.916;2022-09-27T10:15:18;12.10;99.90
15713;DHT22;7957;51.608;6.916;2022-09-27T10:17:47;12.10;99.90
15713;DHT22;7957;51.608;6.916;2022-09-27T10:20:27;12.10;99.90
15713;DHT22;7957;51.608;6.916;2022-09-27T10:23:00;12.10;99.90
15713;DHT22;7957;51.608;6.916;2022-09-27T10:25:45;12.10;99.90
15713;DHT22;7957;51.608;6.916;2022-09-27T10:28:26;12.10;99.90
15713;DHT22;7957;51.608;6.916;2022-09-27T10:30:59;12.20;99.90
15713;DHT22;7957;51.608;6.916;2022-09-27T10:33:26;12.20;99.90
15713;DHT22;7957;51.608;6.916;2022-09-27T10:35:58;12.20;99.90
15713;DHT22;7957;51.608;6.916;2022-09-27T10:38:27;12.20;99.90
15713;DHT22;7957;51.608;6.916;2022-09-27T10:40:57;12.20;99.90
15713;DHT22;7957;51.608;6.916;2022-09-27T10:43:27;12.20;1.00
15713;DHT22;7957;51.608;6.916;2022-09-27T10:46:00;12.20;99.90
15713;DHT22;7957;51.608;6.916;2022-09-27T10:48:28;12.30;1.00
15713;DHT22;7957;51.608;6.916;2022-09-27T10:50:58;12.30;99.90
15713;DHT22;7957;51.608;6.916;2022-09-27T10:53:28;12.30;1.00
15713;DHT22;7957;51.608;6.916;2022-09-27T10:55:56;12.30;1.00
15713;DHT22;7957;51.608;6.916;2022-09-27T10:58:26;12.30;1.00
15713;DHT22;7957;51.608;6.916;2022-09-27T11:00:56;12.30;1.00
15713;DHT22;7957;51.608;6.916;2022-09-27T11:03:26;12.30;1.00
15713;DHT22;7957;51.608;6.916;2022-09-27T11:05:54;12.30;99.90
15713;DHT22;7957;51.608;6.916;2022-09-27T11:08:27;12.40;1.00
15713;DHT22;7957;51.608;6.916;2022-09-27T11:11:11;12.30;99.90
15713;DHT22;7957;51.608;6.916;2022-09-27T11:13:41;12.30;99.90
15713;DHT22;7957;51.608;6.916;2022-09-27T11:16:31;12.30;99.90
15713;DHT22;7957;51.608;6.916;2022-09-27T11:19:12;12.30;1.00
15713;DHT22;7957;51.608;6.916;2022-09-27T11:21:49;12.30;1.00
15713;DHT22;7957;51.608;6.916;2022-09-27T11:24:26;12.20;1.00
15713;DHT22;7957;51.608;6.916;2022-09-27T11:27:08;12.20;1.00
15713;DHT22;7957;51.608;6.916;2022-09-27T11:29:46;12.10;1.00
15713;DHT22;7957;51.608;6.916;2022-09-27T11:32:26;12.10;1.00
15713;DHT22;7957;51.608;6.916;2022-09-27T11:35:12;12.10;1.00
15713;DHT22;7957;51.608;6.916;2022-09-27T11:37:49;12.10;1.00
15713;DHT22;7957;51.608;6.916;2022-09-27T11:40:26;12.00;1.00
15713;DHT22;7957;51.608;6.916;2022-09-27T11:43:19;12.00;1.00
15713;DHT22;7957;51.608;6.916;2022-09-27T11:45:56;12.00;1.00
15713;DHT22;7957;51.608;6.916;2022-09-27T11:48:39;12.00;1.00
15713;DHT22;7957;51.608;6.916;2022-09-27T11:51:18;12.00;1.00
15713;DHT22;7957;51.608;6.916;2022-09-27T11:53:56;12.00;1.00
15713;DHT22;7957;51.608;6.916;2022-09-27T11:56:35;12.00;1.00
15713;DHT22;7957;51.608;6.916;2022-09-27T11:59:28;12.00;1.00
15713;DHT22;7957;51.608;6.916;2022-09-27T12:02:15;12.00;1.00
15713;DHT22;7957;51.608;6.916;2022-09-27T12:04:55;12.00;1.00
15713;DHT22;7957;51.608;6.916;2022-09-27T12:07:32;12.00;1.00
15713;DHT22;7957;51.608;6.916;2022-09-27T12:10:07;12.00;1.00
15713;DHT22;7957;51.608;6.916;2022-09-27T12:12:39;12.00;1.00
15713;DHT22;7957;51.608;6.916;2022-09-27T12:15:15;12.00;1.00
15713;DHT22;7957;51.608;6.916;2022-09-27T12:17:45;12.10;1.00
15713;DHT22;7957;51.608;6.916;2022-09-27T12:20:19;12.10;1.00
15713;DHT22;7957;51.608;6.916;2022-09-27T12:22:53;12.10;1.00
15713;DHT22;7957;51.608;6.916;2022-09-27T12:25:23;12.10;1.00
15713;DHT22;7957;51.608;6.916;2022-09-27T12:27:57;12.10;1.00
15713;DHT22;7957;51.608;6.916;2022-09-27T12:30:26;12.20;1.00
15713;DHT22;7957;51.608;6.916;2022-09-27T12:33:00;12.20;99.90
15713;DHT22;7957;51.608;6.916;2022-09-27T12:35:33;12.10;99.90
15713;DHT22;7957;51.608;6.916;2022-09-27T12:38:08;12.20;99.90
15713;DHT22;7957;51.608;6.916;2022-09-27T12:40:39;12.20;99.90
15713;DHT22;7957;51.608;6.916;2022-09-27T12:43:15;12.20;99.90
15713;DHT22;7957;51.608;6.916;2022-09-27T12:45:49;12.20;99.90
15713;DHT22;7957;51.608;6.916;2022-09-27T12:48:26;12.20;99.90
15713;DHT22;7957;51.608;6.916;2022-09-27T12:51:06;12.20;99.90
15713;DHT22;7957;51.608;6.916;2022-09-27T12:53:46;12.30;99.90
15713;DHT22;7957;51.608;6.916;2022-09-27T12:56:38;12.30;99.90
15713;DHT22;7957;51.608;6.916;2022-09-27T13:02:40;12.30;99.90
15713;DHT22;7957;51.608;6.916;2022-09-27T13:05:36;12.30;99.90
15713;DHT22;7957;51.608;6.916;2022-09-27T13:08:21;12.30;62.40
15713;DHT22;7957;51.608;6.916;2022-09-27T13:10:56;12.30;3.70
15713;DHT22;7957;51.608;6.916;2022-09-27T13:13:24;12.30;1.00
15713;DHT22;7957;51.608;6.916;2022-09-27T13:15:58;12.20;1.00
15713;DHT22;7957;51.608;6.916;2022-09-27T13:18:29;12.20;1.00
15713;DHT22;7957;51.608;6.916;2022-09-27T13:20:57;12.10;1.00
15713;DHT22;7957;51.608;6.916;2022-09-27T13:23:58;12.10;1.00
15713;DHT22;7957;51.608;6.916;2022-09-27T13:26:45;12.10;1.00
15713;DHT22;7957;51.608;6.916;2022-09-27T13:29:30;12.10;1.00
15713;DHT22;7957;51.608;6.916;2022-09-27T13:32:21;12.10;1.00
15713;DHT22;7957;51.608;6.916;2022-09-27T13:34:51;12.10;1.00
15713;DHT22;7957;51.608;6.916;2022-09-27T13:37:52;12.10;1.00
15713;DHT22;7957;51.608;6.916;2022-09-27T13:40:30;12.20;1.00
15713;DHT22;7957;51.608;6.916;2022-09-27T13:43:19;12.20;1.00
15713;DHT22;7957;51.608;6.916;2022-09-27T13:45:54;12.20;1.00
15713;DHT22;7957;51.608;6.916;2022-09-27T13:48:27;12.20;1.00
15713;DHT22;7957;51.608;6.916;2022-09-27T13:51:00;12.20;1.00
15713;DHT22;7957;51.608;6.916;2022-09-27T13:53:32;12.10;1.00
15713;DHT22;7957;51.608;6.916;2022-09-27T13:56:00;12.10;1.00
15713;DHT22;7957;51.608;6.916;2022-09-27T13:58:46;12.10;1.00
15713;DHT22;7957;51.608;6.916;2022-09-27T14:01:20;12.10;1.00
15713;DHT22;7957;51.608;6.916;2022-09-27T14:03:51;12.10;1.00
15713;DHT22;7957;51.608;6.916;2022-09-27T14:06:23;12.10;1.00
15713;DHT22;7957;51.608;6.916;2022-09-27T14:08:52;12.20;1.00
15713;DHT22;7957;51.608;6.916;2022-09-27T14:11:24;12.20;1.00
15713;DHT22;7957;51.608;6.916;2022-09-27T14:13:52;12.20;1.00
15713;DHT22;7957;51.608;6.916;2022-09-27T14:16:20;12.20;1.00
15713;DHT22;7957;51.608;6.916;2022-09-27T14:18:50;12.20;99.90
15713;DHT22;7957;51.608;6.916;2022-09-27T14:21:30;12.20;99.90
15713;DHT22;7957;51.608;6.916;2022-09-27T14:24:18;12.20;99.90
15713;DHT22;7957;51.608;6.916;2022-09-27T14:26:46;12.30;99.90
15713;DHT22;7957;51.608;6.916;2022-09-27T14:29:15;12.30;99.90
15713;DHT22;7957;51.608;6.916;2022-09-27T14:31:42;12.30;99.90
15713;DHT22;7957;51.608;6.916;2022-09-27T14:34:12;12.30;99.90
15713;DHT22;7957;51.608;6.916;2022-09-27T14:36:39;12.30;92.20
15713;DHT22;7957;51.608;6.916;2022-09-27T14:39:29;12.30;22.70
15713;DHT22;7957;51.608;6.916;2022-09-27T14:41:57;12.30;1.00
15713;DHT22;7957;51.608;6.916;2022-09-27T14:44:24;12.30;1.00
15713;DHT22;7957;51.608;6.916;2022-09-27T14:47:15;12.40;1.00
15713;DHT22;7957;51.608;6.916;2022-09-27T14:49:54;12.40;1.00
15713;DHT22;7957;51.608;6.916;2022-09-27T14:52:26;12.40;1.00
15713;DHT22;7957;51.608;6.916;2022-09-27T14:55:00;12.40;1.00
15713;DHT22;7957;51.608;6.916;2022-09-27T14:57:32;12.40;1.00
15713;DHT22;7957;51.608;6.916;2022-09-27T15:00:20;12.40;1.00
15713;DHT22;7957;51.608;6.916;2022-09-27T15:02:56;12.30;1.00
15713;DHT22;7957;51.608;6.916;2022-09-27T15:05:32;12.30;1.00
15713;DHT22;7957;51.608;6.916;2022-09-27T15:08:10;12.30;1.00
15713;DHT22;7957;51.608;6.916;2022-09-27T15:10:45;12.30;1.00
15713;DHT22;7957;51.608;6.916;2022-09-27T15:13:31;12.30;99.90
15713;DHT22;7957;51.608;6.916;2022-09-27T15:16:23;12.30;99.90
15713;DHT22;7957;51.608;6.916;2022-09-27T15:19:11;12.30;99.90
15713;DHT22;7957;51.608;6.916;2022-09-27T15:21:45;12.30;99.90
15713;DHT22;7957;51.608;6.916;2022-09-27T15:24:37;12.30;99.90
15713;DHT22;7957;51.608;6.916;2022-09-27T15:27:13;12.30;99.90
15713;DHT22;7957;51.608;6.916;2022-09-27T15:29:49;12.30;99.90
15713;DHT22;7957;51.608;6.916;2022-09-27T15:32:21;12.40;99.90
15713;DHT22;7957;51.608;6.916;2022-09-27T15:34:55;12.30;99.90
15713;DHT22;7957;51.608;6.916;2022-09-27T15:37:34;12.40;99.90
15713;DHT22;7957;51.608;6.916;2022-09-27T15:43:28;12.40;99.90
15713;DHT22;7957;51.608;6.916;2022-09-27T15:45:59;12.30;99.90
15713;DHT22;7957;51.608;6.916;2022-09-27T15:48:29;12.30;99.90
15713;DHT22;7957;51.608;6.916;2022-09-27T15:50:57;12.30;99.90
15713;DHT22;7957;51.608;6.916;2022-09-27T15:53:42;12.30;99.90
15713;DHT22;7957;51.608;6.916;2022-09-27T15:56:12;12.30;99.90
15713;DHT22;7957;51.608;6.916;2022-09-27T15:58:46;12.20;99.90
15713;DHT22;7957;51.608;6.916;2022-09-27T16:01:30;12.20;99.90
15713;DHT22;7957;51.608;6.916;2022-09-27T16:04:10;12.20;99.90
15713;DHT22;7957;51.608;6.916;2022-09-27T16:06:45;12.20;99.90
15713;DHT22;7957;51.608;6.916;2022-09-27T16:09:20;12.20;99.90
15713;DHT22;7957;51.608;6.916;2022-09-27T16:11:55;12.20;99.90
15713;DHT22;7957;51.608;6.916;2022-09-27T16:14:40;12.20;99.90
15713;DHT22;7957;51.608;6.916;2022-09-27T16:17:08;12.20;99.90
15713;DHT22;7957;51.608;6.916;2022-09-27T16:19:36;12.20;99.90
15713;DHT22;7957;51.608;6.916;2022-09-27T16:22:03;12.20;99.90
15713;DHT22;7957;51.608;6.916;2022-09-27T16:24:32;12.20;99.90
15713;DHT22;7957;51.608;6.916;2022-09-27T16:26:58;12.20;99.90
15713;DHT22;7957;51.608;6.916;2022-09-27T16:29:25;12.20;99.90
15713;DHT22;7957;51.608;6.916;2022-09-27T16:31:52;12.20;99.90
15713;DHT22;7957;51.608;6.916;2022-09-27T16:34:19;12.20;1.00
15713;DHT22;7957;51.608;6.916;2022-09-27T16:36:48;12.20;1.00